OHICE LDOS-LKMT
Flight info
| Callsign | OHICE |
|---|---|
| Flight time | 0h 48m |
| Altitude | 40000 |
| Route | BAREB DCT XOMBA/N0456F390 DCT VAPUS DCT BILNA |
| Aircraft | E190/M-SDE3GILORVW/S |
Departure
| Time | 2026-05-05 17:35 |
|---|---|
| Airport | Osijek Airport (LDOS) |
Arrival
| Time | 2026-05-05 18:24 |
|---|---|
| Airport | Leoš Janáček Airport Ostrava (LKMT) |
| Time | Latitude | Longitude | Altitude | Speed | Heading |
|---|---|---|---|---|---|
| 2026-05-05 17:23 | 45.46553 | 18.80772 | 294 ft | 0 kts | 70° |
| 2026-05-05 17:28 | 45.46553 | 18.80775 | 294 ft | 0 kts | 91° |
| 2026-05-05 17:29 | 45.46548 | 18.80780 | 294 ft | 1 kts | 163° |
| 2026-05-05 17:29 | 45.46523 | 18.80778 | 294 ft | 5 kts | 180° |
| 2026-05-05 17:29 | 45.46494 | 18.80817 | 294 ft | 7 kts | 112° |
| 2026-05-05 17:29 | 45.46450 | 18.80824 | 294 ft | 8 kts | 199° |
| 2026-05-05 17:30 | 45.46433 | 18.80816 | 294 ft | 1 kts | 201° |
| 2026-05-05 17:30 | 45.46415 | 18.80806 | 294 ft | 4 kts | 201° |
| 2026-05-05 17:30 | 45.46372 | 18.80783 | 294 ft | 8 kts | 197° |
| 2026-05-05 17:30 | 45.46318 | 18.80826 | 294 ft | 12 kts | 111° |
| 2026-05-05 17:31 | 45.46284 | 18.80948 | 293 ft | 14 kts | 110° |
| 2026-05-05 17:31 | 45.46251 | 18.81086 | 293 ft | 15 kts | 111° |
| 2026-05-05 17:31 | 45.46210 | 18.81238 | 293 ft | 17 kts | 110° |
| 2026-05-05 17:31 | 45.46166 | 18.81406 | 292 ft | 19 kts | 110° |
| 2026-05-05 17:32 | 45.46107 | 18.81628 | 292 ft | 20 kts | 110° |
| 2026-05-05 17:32 | 45.46055 | 18.81827 | 292 ft | 22 kts | 111° |
| 2026-05-05 17:32 | 45.45999 | 18.82037 | 293 ft | 23 kts | 111° |
| 2026-05-05 17:32 | 45.45941 | 18.82256 | 293 ft | 24 kts | 110° |
| 2026-05-05 17:33 | 45.45882 | 18.82483 | 294 ft | 23 kts | 109° |
| 2026-05-05 17:33 | 45.45881 | 18.82598 | 294 ft | 10 kts | 94° |
| 2026-05-05 17:33 | 45.45852 | 18.82618 | 294 ft | 4 kts | 223° |
| 2026-05-05 17:33 | 45.45856 | 18.82573 | 294 ft | 5 kts | 300° |
| 2026-05-05 17:34 | 45.45859 | 18.82562 | 294 ft | 0 kts | 294° |
| 2026-05-05 17:34 | 45.45860 | 18.82561 | 294 ft | 0 kts | 294° |
| 2026-05-05 17:34 | 45.45861 | 18.82558 | 294 ft | 1 kts | 294° |
| 2026-05-05 17:34 | 45.45885 | 18.82471 | 294 ft | 39 kts | 291° |
| 2026-05-05 17:35 | 45.46100 | 18.81654 | 293 ft | 132 kts | 290° |
| 2026-05-05 17:35 | 45.46479 | 18.80204 | 723 ft | 172 kts | 289° |
| 2026-05-05 17:35 | 45.47173 | 18.78878 | 1850 ft | 178 kts | 323° |
| 2026-05-05 17:35 | 45.48433 | 18.78461 | 2564 ft | 204 kts | 355° |
| 2026-05-05 17:36 | 45.49912 | 18.78521 | 3230 ft | 226 kts | 358° |
| 2026-05-05 17:36 | 45.51601 | 18.78629 | 3832 ft | 255 kts | 0° |
| 2026-05-05 17:36 | 45.53334 | 18.78762 | 4999 ft | 255 kts | 1° |
| 2026-05-05 17:36 | 45.55060 | 18.78902 | 6282 ft | 249 kts | 2° |
| 2026-05-05 17:37 | 45.56737 | 18.79043 | 7413 ft | 247 kts | 2° |
| 2026-05-05 17:37 | 45.57866 | 18.79140 | 7871 ft | 248 kts | 2° |
| 2026-05-05 17:37 | 45.60218 | 18.79341 | 7975 ft | 248 kts | 3° |
| 2026-05-05 17:37 | 45.61930 | 18.79488 | 8028 ft | 256 kts | 2° |
| 2026-05-05 17:38 | 45.63753 | 18.79114 | 8504 ft | 274 kts | 330° |
| 2026-05-05 17:38 | 45.65112 | 18.77325 | 9393 ft | 271 kts | 294° |
| 2026-05-05 17:38 | 45.65798 | 18.74835 | 10321 ft | 273 kts | 285° |
| 2026-05-05 17:38 | 45.66442 | 18.72304 | 11262 ft | 277 kts | 286° |
| 2026-05-05 17:39 | 45.67133 | 18.69661 | 12049 ft | 290 kts | 287° |
| 2026-05-05 17:39 | 45.67855 | 18.66939 | 12846 ft | 301 kts | 287° |
| 2026-05-05 17:39 | 45.68612 | 18.64080 | 13472 ft | 318 kts | 287° |
| 2026-05-05 17:39 | 45.69408 | 18.61070 | 14307 ft | 330 kts | 288° |
| 2026-05-05 17:40 | 45.70215 | 18.58021 | 15240 ft | 336 kts | 288° |
| 2026-05-05 17:40 | 45.71039 | 18.54906 | 16245 ft | 338 kts | 289° |
| 2026-05-05 17:40 | 45.71875 | 18.51739 | 17225 ft | 340 kts | 289° |
| 2026-05-05 17:40 | 45.72712 | 18.48566 | 18137 ft | 344 kts | 289° |
| 2026-05-05 17:41 | 45.73554 | 18.45399 | 18963 ft | 348 kts | 292° |
| 2026-05-05 17:41 | 45.74962 | 18.42559 | 19722 ft | 358 kts | 318° |
| 2026-05-05 17:41 | 45.77154 | 18.40836 | 20505 ft | 367 kts | 343° |
| 2026-05-05 17:41 | 45.79692 | 18.40361 | 21295 ft | 373 kts | 353° |
| 2026-05-05 17:42 | 45.82288 | 18.39999 | 22074 ft | 376 kts | 352° |
| 2026-05-05 17:42 | 45.84858 | 18.39592 | 22802 ft | 380 kts | 352° |
| 2026-05-05 17:42 | 45.87492 | 18.39156 | 23512 ft | 384 kts | 352° |
| 2026-05-05 17:42 | 45.90179 | 18.38705 | 24224 ft | 388 kts | 351° |
| 2026-05-05 17:43 | 45.92849 | 18.38254 | 24910 ft | 393 kts | 351° |
| 2026-05-05 17:43 | 45.95589 | 18.37789 | 25578 ft | 397 kts | 351° |
| 2026-05-05 17:43 | 45.98322 | 18.37326 | 26216 ft | 401 kts | 351° |
| 2026-05-05 17:43 | 46.01111 | 18.36852 | 26857 ft | 405 kts | 351° |
| 2026-05-05 17:44 | 46.03937 | 18.36372 | 27494 ft | 409 kts | 351° |
| 2026-05-05 17:44 | 46.06756 | 18.35891 | 28133 ft | 412 kts | 351° |
| 2026-05-05 17:44 | 46.09597 | 18.35407 | 28758 ft | 415 kts | 351° |
| 2026-05-05 17:44 | 46.12476 | 18.34916 | 29336 ft | 419 kts | 350° |
| 2026-05-05 17:45 | 46.15392 | 18.34418 | 29917 ft | 422 kts | 350° |
| 2026-05-05 17:45 | 46.18309 | 18.33920 | 30476 ft | 426 kts | 350° |
| 2026-05-05 17:45 | 46.21243 | 18.33417 | 31026 ft | 430 kts | 350° |
| 2026-05-05 17:45 | 46.24226 | 18.32906 | 31618 ft | 432 kts | 350° |
| 2026-05-05 17:46 | 46.27192 | 18.32397 | 32229 ft | 433 kts | 350° |
| 2026-05-05 17:46 | 46.30206 | 18.31880 | 32926 ft | 433 kts | 350° |
| 2026-05-05 17:46 | 46.33160 | 18.31373 | 33684 ft | 430 kts | 350° |
| 2026-05-05 17:46 | 46.36087 | 18.30869 | 34461 ft | 426 kts | 351° |
| 2026-05-05 17:47 | 46.39037 | 18.30361 | 35119 ft | 423 kts | 351° |
| 2026-05-05 17:47 | 46.41924 | 18.29863 | 35676 ft | 421 kts | 351° |
| 2026-05-05 17:47 | 46.44801 | 18.29366 | 36177 ft | 420 kts | 351° |
| 2026-05-05 17:47 | 46.47692 | 18.28866 | 36651 ft | 419 kts | 351° |
| 2026-05-05 17:48 | 46.50575 | 18.28368 | 37204 ft | 419 kts | 351° |
| 2026-05-05 17:48 | 46.53493 | 18.27862 | 37772 ft | 420 kts | 351° |
| 2026-05-05 17:48 | 46.56375 | 18.27363 | 38373 ft | 420 kts | 351° |
| 2026-05-05 17:48 | 46.59268 | 18.26860 | 39000 ft | 419 kts | 351° |
| 2026-05-05 17:49 | 46.62159 | 18.26358 | 39586 ft | 418 kts | 351° |
| 2026-05-05 17:49 | 46.65020 | 18.25860 | 39877 ft | 420 kts | 351° |
| 2026-05-05 17:49 | 46.67946 | 18.25350 | 39902 ft | 431 kts | 351° |
| 2026-05-05 17:50 | 46.74041 | 18.24287 | 39926 ft | 450 kts | 351° |
| 2026-05-05 17:50 | 46.80345 | 18.23185 | 39926 ft | 463 kts | 351° |
| 2026-05-05 17:50 | 46.83454 | 18.22642 | 39914 ft | 445 kts | 351° |
| 2026-05-05 17:51 | 46.86497 | 18.22108 | 39924 ft | 438 kts | 351° |
| 2026-05-05 17:51 | 46.92594 | 18.21037 | 39929 ft | 443 kts | 351° |
| 2026-05-05 17:52 | 46.98699 | 18.19962 | 39924 ft | 444 kts | 351° |
| 2026-05-05 17:52 | 47.04809 | 18.18884 | 39926 ft | 443 kts | 351° |
| 2026-05-05 17:53 | 47.10917 | 18.17804 | 39919 ft | 443 kts | 351° |
| 2026-05-05 17:53 | 47.17037 | 18.16719 | 39915 ft | 443 kts | 351° |
| 2026-05-05 17:54 | 47.23109 | 18.15640 | 39913 ft | 442 kts | 351° |
| 2026-05-05 17:54 | 47.29212 | 18.14553 | 39912 ft | 442 kts | 351° |
| 2026-05-05 17:55 | 47.35349 | 18.13458 | 39904 ft | 443 kts | 351° |
| 2026-05-05 17:55 | 47.41445 | 18.12368 | 39905 ft | 444 kts | 351° |
| 2026-05-05 17:56 | 47.47540 | 18.11275 | 39907 ft | 443 kts | 351° |
| 2026-05-05 17:56 | 47.53661 | 18.10174 | 39896 ft | 444 kts | 351° |
| 2026-05-05 17:56 | 47.56701 | 18.09627 | 39882 ft | 431 kts | 351° |
| 2026-05-05 17:57 | 47.59614 | 18.09102 | 39891 ft | 424 kts | 351° |
| 2026-05-05 17:57 | 47.65475 | 18.08043 | 39846 ft | 426 kts | 351° |
| 2026-05-05 17:57 | 47.68419 | 18.07511 | 39349 ft | 428 kts | 351° |
| 2026-05-05 17:58 | 47.71348 | 18.06980 | 38863 ft | 426 kts | 351° |
| 2026-05-05 17:58 | 47.74283 | 18.06486 | 38390 ft | 425 kts | 354° |
| 2026-05-05 17:58 | 47.77224 | 18.06576 | 37932 ft | 429 kts | 5° |
| 2026-05-05 17:58 | 47.80192 | 18.07285 | 37445 ft | 431 kts | 8° |
| 2026-05-05 17:59 | 47.83116 | 18.08023 | 36969 ft | 431 kts | 7° |
| 2026-05-05 17:59 | 47.86065 | 18.08756 | 36526 ft | 432 kts | 7° |
| 2026-05-05 17:59 | 47.89062 | 18.09498 | 36062 ft | 433 kts | 7° |
| 2026-05-05 17:59 | 47.92012 | 18.10228 | 35583 ft | 433 kts | 7° |
| 2026-05-05 18:00 | 47.94957 | 18.10957 | 35109 ft | 433 kts | 7° |
| 2026-05-05 18:00 | 47.97960 | 18.11702 | 34631 ft | 433 kts | 7° |
| 2026-05-05 18:00 | 48.00892 | 18.12430 | 34126 ft | 434 kts | 7° |
| 2026-05-05 18:00 | 48.03878 | 18.13172 | 33643 ft | 436 kts | 7° |
| 2026-05-05 18:01 | 48.06899 | 18.13924 | 33156 ft | 438 kts | 6° |
| 2026-05-05 18:01 | 48.09883 | 18.14667 | 32673 ft | 440 kts | 6° |
| 2026-05-05 18:01 | 48.12914 | 18.15423 | 32183 ft | 442 kts | 6° |
| 2026-05-05 18:01 | 48.15911 | 18.16171 | 31700 ft | 443 kts | 6° |
| 2026-05-05 18:02 | 48.18986 | 18.16940 | 31202 ft | 444 kts | 6° |
| 2026-05-05 18:02 | 48.22026 | 18.17701 | 30711 ft | 444 kts | 6° |
| 2026-05-05 18:02 | 48.25029 | 18.18454 | 30224 ft | 440 kts | 6° |
| 2026-05-05 18:02 | 48.28051 | 18.19212 | 29737 ft | 437 kts | 6° |
| 2026-05-05 18:03 | 48.31002 | 18.19953 | 29263 ft | 434 kts | 6° |
| 2026-05-05 18:03 | 48.33974 | 18.20700 | 28783 ft | 431 kts | 6° |
| 2026-05-05 18:03 | 48.36920 | 18.21442 | 28307 ft | 429 kts | 6° |
| 2026-05-05 18:03 | 48.39817 | 18.22172 | 27842 ft | 426 kts | 7° |
| 2026-05-05 18:04 | 48.42755 | 18.22914 | 27371 ft | 423 kts | 7° |
| 2026-05-05 18:04 | 48.45629 | 18.23640 | 26914 ft | 420 kts | 7° |
| 2026-05-05 18:04 | 48.48483 | 18.24362 | 26456 ft | 417 kts | 7° |
| 2026-05-05 18:04 | 48.51321 | 18.25081 | 25999 ft | 415 kts | 7° |
| 2026-05-05 18:05 | 48.54163 | 18.25801 | 25538 ft | 413 kts | 7° |
| 2026-05-05 18:05 | 48.56982 | 18.26516 | 25080 ft | 410 kts | 7° |
| 2026-05-05 18:05 | 48.59759 | 18.27222 | 24624 ft | 407 kts | 7° |
| 2026-05-05 18:05 | 48.62549 | 18.27932 | 24171 ft | 405 kts | 7° |
| 2026-05-05 18:06 | 48.65332 | 18.28641 | 23728 ft | 403 kts | 8° |
| 2026-05-05 18:06 | 48.66240 | 18.28872 | 23584 ft | 402 kts | 8° |
| 2026-05-05 18:06 | 48.70809 | 18.30038 | 22845 ft | 399 kts | 8° |
| 2026-05-05 18:06 | 48.73544 | 18.30737 | 22400 ft | 397 kts | 8° |
| 2026-05-05 18:07 | 48.76254 | 18.31430 | 21959 ft | 394 kts | 8° |
| 2026-05-05 18:07 | 48.78932 | 18.32116 | 21535 ft | 392 kts | 8° |
| 2026-05-05 18:07 | 48.81612 | 18.32803 | 21106 ft | 390 kts | 8° |
| 2026-05-05 18:07 | 48.84281 | 18.33488 | 20676 ft | 388 kts | 8° |
| 2026-05-05 18:08 | 48.86908 | 18.34163 | 20256 ft | 386 kts | 8° |
| 2026-05-05 18:08 | 48.89545 | 18.34840 | 19827 ft | 384 kts | 7° |
| 2026-05-05 18:08 | 48.92187 | 18.35380 | 19410 ft | 381 kts | 5° |
| 2026-05-05 18:08 | 48.94804 | 18.35892 | 18982 ft | 379 kts | 5° |
| 2026-05-05 18:09 | 48.97382 | 18.36399 | 18576 ft | 376 kts | 6° |
| 2026-05-05 18:09 | 48.99985 | 18.36911 | 18153 ft | 374 kts | 6° |
| 2026-05-05 18:09 | 49.02531 | 18.37413 | 17753 ft | 372 kts | 6° |
| 2026-05-05 18:09 | 49.05096 | 18.37919 | 17330 ft | 371 kts | 6° |
| 2026-05-05 18:10 | 49.07653 | 18.38424 | 16933 ft | 370 kts | 6° |
| 2026-05-05 18:10 | 49.10190 | 18.38926 | 16520 ft | 370 kts | 6° |
| 2026-05-05 18:10 | 49.12769 | 18.39436 | 16104 ft | 370 kts | 6° |
| 2026-05-05 18:10 | 49.15326 | 18.39943 | 15677 ft | 370 kts | 6° |
| 2026-05-05 18:11 | 49.17861 | 18.40445 | 15280 ft | 368 kts | 6° |
| 2026-05-05 18:11 | 49.20400 | 18.40949 | 14873 ft | 368 kts | 6° |
| 2026-05-05 18:11 | 49.22915 | 18.41449 | 14477 ft | 367 kts | 6° |
| 2026-05-05 18:11 | 49.25439 | 18.41951 | 14064 ft | 366 kts | 6° |
| 2026-05-05 18:12 | 49.27946 | 18.42450 | 13682 ft | 365 kts | 6° |
| 2026-05-05 18:12 | 49.30455 | 18.42951 | 13274 ft | 364 kts | 6° |
| 2026-05-05 18:12 | 49.32972 | 18.43453 | 12867 ft | 363 kts | 6° |
| 2026-05-05 18:12 | 49.35477 | 18.43953 | 12393 ft | 364 kts | 6° |
| 2026-05-05 18:13 | 49.37993 | 18.44456 | 11903 ft | 361 kts | 6° |
| 2026-05-05 18:13 | 49.40474 | 18.44708 | 11219 ft | 361 kts | 356° |
| 2026-05-05 18:13 | 49.42956 | 18.44606 | 10759 ft | 349 kts | 356° |
| 2026-05-05 18:13 | 49.45335 | 18.44515 | 10408 ft | 336 kts | 356° |
| 2026-05-05 18:14 | 49.47606 | 18.44430 | 10184 ft | 323 kts | 356° |
| 2026-05-05 18:14 | 49.49843 | 18.44347 | 9858 ft | 318 kts | 356° |
| 2026-05-05 18:14 | 49.52051 | 18.44265 | 9500 ft | 316 kts | 356° |
| 2026-05-05 18:14 | 49.54224 | 18.44185 | 9177 ft | 316 kts | 356° |
| 2026-05-05 18:15 | 49.56450 | 18.44102 | 8812 ft | 316 kts | 356° |
| 2026-05-05 18:15 | 49.58646 | 18.44021 | 8463 ft | 317 kts | 356° |
| 2026-05-05 18:15 | 49.60838 | 18.43940 | 8099 ft | 316 kts | 356° |
| 2026-05-05 18:15 | 49.63040 | 18.43859 | 7728 ft | 315 kts | 356° |
| 2026-05-05 18:16 | 49.65211 | 18.43778 | 7412 ft | 314 kts | 356° |
| 2026-05-05 18:16 | 49.67413 | 18.43697 | 7049 ft | 314 kts | 356° |
| 2026-05-05 18:16 | 49.69575 | 18.43616 | 6686 ft | 314 kts | 356° |
| 2026-05-05 18:16 | 49.71786 | 18.43535 | 6329 ft | 313 kts | 356° |
| 2026-05-05 18:17 | 49.73960 | 18.43452 | 5993 ft | 311 kts | 355° |
| 2026-05-05 18:17 | 49.75983 | 18.42623 | 5639 ft | 292 kts | 323° |
| 2026-05-05 18:17 | 49.77488 | 18.40759 | 5333 ft | 273 kts | 311° |
| 2026-05-05 18:17 | 49.78866 | 18.38799 | 5016 ft | 267 kts | 310° |
| 2026-05-05 18:18 | 49.80199 | 18.36873 | 4739 ft | 259 kts | 310° |
| 2026-05-05 18:18 | 49.81498 | 18.34985 | 4493 ft | 248 kts | 310° |
| 2026-05-05 18:18 | 49.82601 | 18.33054 | 4177 ft | 228 kts | 288° |
| 2026-05-05 18:18 | 49.82751 | 18.30845 | 3892 ft | 195 kts | 244° |
| 2026-05-05 18:19 | 49.81980 | 18.29476 | 3759 ft | 158 kts | 202° |
| 2026-05-05 18:19 | 49.81051 | 18.28760 | 3594 ft | 145 kts | 207° |
| 2026-05-05 18:19 | 49.80252 | 18.27879 | 3405 ft | 135 kts | 212° |
| 2026-05-05 18:19 | 49.79563 | 18.26965 | 3227 ft | 125 kts | 216° |
| 2026-05-05 18:20 | 49.78968 | 18.26091 | 3034 ft | 109 kts | 216° |
| 2026-05-05 18:20 | 49.78616 | 18.25555 | 2934 ft | 106 kts | 216° |
| 2026-05-05 18:20 | 49.77914 | 18.24463 | 2805 ft | 110 kts | 217° |
| 2026-05-05 18:20 | 49.77367 | 18.23595 | 2664 ft | 115 kts | 218° |
| 2026-05-05 18:21 | 49.76821 | 18.22714 | 2525 ft | 114 kts | 218° |
| 2026-05-05 18:21 | 49.76264 | 18.21814 | 2372 ft | 115 kts | 218° |
| 2026-05-05 18:21 | 49.75710 | 18.20919 | 2215 ft | 115 kts | 219° |
| 2026-05-05 18:21 | 49.75159 | 18.20024 | 2063 ft | 114 kts | 219° |
| 2026-05-05 18:22 | 49.74611 | 18.19133 | 1915 ft | 115 kts | 219° |
| 2026-05-05 18:22 | 49.74055 | 18.18239 | 1762 ft | 115 kts | 219° |
| 2026-05-05 18:22 | 49.73500 | 18.17342 | 1615 ft | 116 kts | 220° |
| 2026-05-05 18:22 | 49.72935 | 18.16431 | 1462 ft | 117 kts | 220° |
| 2026-05-05 18:23 | 49.72368 | 18.15521 | 1312 ft | 119 kts | 220° |
| 2026-05-05 18:23 | 49.71788 | 18.14595 | 1169 ft | 121 kts | 221° |
| 2026-05-05 18:23 | 49.71205 | 18.13642 | 1000 ft | 123 kts | 221° |
| 2026-05-05 18:23 | 49.70613 | 18.12684 | 844 ft | 123 kts | 223° |
| 2026-05-05 18:24 | 49.70085 | 18.11835 | 834 ft | 87 kts | 226° |
| 2026-05-05 18:24 | 49.69776 | 18.11333 | 838 ft | 44 kts | 225° |
| 2026-05-05 18:24 | 49.69663 | 18.11153 | 839 ft | 11 kts | 223° |
| 2026-05-05 18:24 | 49.69599 | 18.11119 | 840 ft | 7 kts | 157° |
| 2026-05-05 18:25 | 49.69557 | 18.11177 | 840 ft | 9 kts | 136° |
| 2026-05-05 18:25 | 49.69539 | 18.11203 | 840 ft | 11 kts | 137° |
| 2026-05-05 18:25 | 49.69432 | 18.11360 | 840 ft | 8 kts | 136° |
| 2026-05-05 18:25 | 49.69413 | 18.11444 | 840 ft | 9 kts | 69° |
| 2026-05-05 18:26 | 49.69462 | 18.11521 | 840 ft | 11 kts | 46° |
| 2026-05-05 18:26 | 49.69524 | 18.11626 | 839 ft | 14 kts | 45° |
| 2026-05-05 18:26 | 49.69602 | 18.11752 | 838 ft | 17 kts | 46° |
| 2026-05-05 18:26 | 49.69691 | 18.11896 | 837 ft | 19 kts | 45° |
| 2026-05-05 18:27 | 49.69791 | 18.12056 | 836 ft | 21 kts | 46° |
| 2026-05-05 18:27 | 49.69901 | 18.12234 | 834 ft | 24 kts | 46° |
| 2026-05-05 18:27 | 49.70007 | 18.12407 | 832 ft | 17 kts | 44° |
| 2026-05-05 18:27 | 49.70050 | 18.12475 | 831 ft | 8 kts | 46° |
| 2026-05-05 18:28 | 49.70101 | 18.12557 | 830 ft | 2 kts | 47° |
| 2026-05-05 18:28 | 49.70121 | 18.12590 | 830 ft | 5 kts | 47° |
| 2026-05-05 18:28 | 49.70134 | 18.12645 | 829 ft | 6 kts | 111° |
| 2026-05-05 18:29 | 49.70106 | 18.12683 | 829 ft | 1 kts | 169° |
| 2026-05-05 18:29 | 49.70093 | 18.12676 | 829 ft | 2 kts | 213° |
| 2026-05-05 18:29 | 49.70079 | 18.12657 | 829 ft | 2 kts | 227° |
| 2026-05-05 18:29 | 49.70070 | 18.12639 | 830 ft | 2 kts | 230° |
| 2026-05-05 18:30 | 49.70057 | 18.12620 | 830 ft | 0 kts | 225° |
| 2026-05-05 18:30 | 49.70057 | 18.12619 | 830 ft | 0 kts | 225° |